Terminal Aerodrome Forecast
Issued by NWS Missoula, MT

Home | Current Version | Previous Version | Text Only | Print | Product List | Glossary On
Versions: 1 2 3 4 5 6 7 8 9 10 11 12 13 14 15 16 17 18 19
000
FTUS45 KMSO 300122 AAB
TAFGPI
TAF AMD
KGPI 300122Z 3001/3024 27010G22KT 2SM FU VCSH SCT030 BKN100
     FM300300 VRB06KT 3SM FU SCT040 BKN100
     FM301800 20012KT P6SM -SHRA BKN040 OVC080=

USA.gov is the U.S. government's official web portal to all federal, state and local government web resources and services.